sensor_id;sensor_type;location;lat;lon;timestamp;temperature;humidity
49465;DHT22;35358;49.342;8.802;2022-11-15T00:01:17;7.30;99.90
49465;DHT22;35358;49.342;8.802;2022-11-15T00:03:43;7.30;99.90
49465;DHT22;35358;49.342;8.802;2022-11-15T00:06:09;7.30;99.90
49465;DHT22;35358;49.342;8.802;2022-11-15T00:08:35;7.20;99.90
49465;DHT22;35358;49.342;8.802;2022-11-15T00:11:02;7.20;99.90
49465;DHT22;35358;49.342;8.802;2022-11-15T00:13:28;7.30;99.90
49465;DHT22;35358;49.342;8.802;2022-11-15T00:15:57;7.40;99.90
49465;DHT22;35358;49.342;8.802;2022-11-15T00:18:23;7.50;99.90
49465;DHT22;35358;49.342;8.802;2022-11-15T00:20:49;7.50;99.90
49465;DHT22;35358;49.342;8.802;2022-11-15T00:23:17;7.40;99.90
49465;DHT22;35358;49.342;8.802;2022-11-15T00:25:43;7.20;99.90
49465;DHT22;35358;49.342;8.802;2022-11-15T00:28:08;7.30;99.90
49465;DHT22;35358;49.342;8.802;2022-11-15T00:30:36;7.30;99.90
49465;DHT22;35358;49.342;8.802;2022-11-15T00:33:08;7.30;99.90
49465;DHT22;35358;49.342;8.802;2022-11-15T00:35:36;7.30;99.90
49465;DHT22;35358;49.342;8.802;2022-11-15T00:38:02;7.20;99.90
49465;DHT22;35358;49.342;8.802;2022-11-15T00:40:28;7.30;99.90
49465;DHT22;35358;49.342;8.802;2022-11-15T00:42:58;7.30;99.90
49465;DHT22;35358;49.342;8.802;2022-11-15T00:45:25;7.20;99.90
49465;DHT22;35358;49.342;8.802;2022-11-15T00:47:51;7.10;99.90
49465;DHT22;35358;49.342;8.802;2022-11-15T00:50:17;7.20;99.90
49465;DHT22;35358;49.342;8.802;2022-11-15T00:52:49;7.30;99.90
49465;DHT22;35358;49.342;8.802;2022-11-15T00:55:16;7.30;99.90
49465;DHT22;35358;49.342;8.802;2022-11-15T00:57:43;7.30;99.90
49465;DHT22;35358;49.342;8.802;2022-11-15T01:00:09;7.20;99.90
49465;DHT22;35358;49.342;8.802;2022-11-15T01:02:35;7.20;99.90
49465;DHT22;35358;49.342;8.802;2022-11-15T01:05:00;7.20;99.90
49465;DHT22;35358;49.342;8.802;2022-11-15T01:07:26;7.20;99.90
49465;DHT22;35358;49.342;8.802;2022-11-15T01:09:54;7.20;99.90
49465;DHT22;35358;49.342;8.802;2022-11-15T01:12:20;7.10;99.90
49465;DHT22;35358;49.342;8.802;2022-11-15T01:14:47;7.00;99.90
49465;DHT22;35358;49.342;8.802;2022-11-15T01:17:17;6.90;99.90
49465;DHT22;35358;49.342;8.802;2022-11-15T01:19:48;6.90;99.90
49465;DHT22;35358;49.342;8.802;2022-11-15T01:22:13;6.90;99.90
49465;DHT22;35358;49.342;8.802;2022-11-15T01:24:41;6.90;99.90
49465;DHT22;35358;49.342;8.802;2022-11-15T01:27:07;6.90;99.90
49465;DHT22;35358;49.342;8.802;2022-11-15T01:29:32;6.90;99.90
49465;DHT22;35358;49.342;8.802;2022-11-15T01:31:58;6.90;99.90
49465;DHT22;35358;49.342;8.802;2022-11-15T01:34:24;6.90;99.90
49465;DHT22;35358;49.342;8.802;2022-11-15T01:36:49;6.90;99.90
49465;DHT22;35358;49.342;8.802;2022-11-15T01:39:15;7.00;99.90
49465;DHT22;35358;49.342;8.802;2022-11-15T01:41:43;7.10;99.90
49465;DHT22;35358;49.342;8.802;2022-11-15T01:46:56;7.10;99.90
49465;DHT22;35358;49.342;8.802;2022-11-15T01:49:26;7.20;99.90
49465;DHT22;35358;49.342;8.802;2022-11-15T01:51:52;7.10;99.90
49465;DHT22;35358;49.342;8.802;2022-11-15T01:54:21;7.10;99.90
49465;DHT22;35358;49.342;8.802;2022-11-15T01:57:03;7.10;99.90
49465;DHT22;35358;49.342;8.802;2022-11-15T01:59:29;7.00;99.90
49465;DHT22;35358;49.342;8.802;2022-11-15T02:01:57;7.00;99.90
49465;DHT22;35358;49.342;8.802;2022-11-15T02:04:32;7.00;99.90
49465;DHT22;35358;49.342;8.802;2022-11-15T02:07:03;7.00;99.90
49465;DHT22;35358;49.342;8.802;2022-11-15T02:09:32;7.00;99.90
49465;DHT22;35358;49.342;8.802;2022-11-15T02:12:00;7.00;99.90
49465;DHT22;35358;49.342;8.802;2022-11-15T02:14:30;7.00;99.90
49465;DHT22;35358;49.342;8.802;2022-11-15T02:22:22;6.70;99.90
49465;DHT22;35358;49.342;8.802;2022-11-15T02:33:50;6.60;99.90
49465;DHT22;35358;49.342;8.802;2022-11-15T02:36:27;6.70;99.90
49465;DHT22;35358;49.342;8.802;2022-11-15T02:39:02;6.70;99.90
49465;DHT22;35358;49.342;8.802;2022-11-15T02:44:42;6.80;99.90
49465;DHT22;35358;49.342;8.802;2022-11-15T02:47:09;6.70;99.90
49465;DHT22;35358;49.342;8.802;2022-11-15T02:49:46;6.70;99.90
49465;DHT22;35358;49.342;8.802;2022-11-15T02:52:23;6.70;99.90
49465;DHT22;35358;49.342;8.802;2022-11-15T02:55:03;6.60;99.90
49465;DHT22;35358;49.342;8.802;2022-11-15T02:57:56;6.40;99.90
49465;DHT22;35358;49.342;8.802;2022-11-15T03:00:20;6.50;99.90
49465;DHT22;35358;49.342;8.802;2022-11-15T03:10:43;6.40;99.90
49465;DHT22;35358;49.342;8.802;2022-11-15T03:15:44;6.40;99.90
49465;DHT22;35358;49.342;8.802;2022-11-15T03:18:25;6.40;99.90
49465;DHT22;35358;49.342;8.802;2022-11-15T03:20:52;6.40;99.90
49465;DHT22;35358;49.342;8.802;2022-11-15T03:23:18;6.40;99.90
49465;DHT22;35358;49.342;8.802;2022-11-15T03:25:48;6.50;99.90
49465;DHT22;35358;49.342;8.802;2022-11-15T03:28:23;6.40;99.90
49465;DHT22;35358;49.342;8.802;2022-11-15T03:30:52;6.50;99.90
49465;DHT22;35358;49.342;8.802;2022-11-15T03:33:24;6.60;99.90
49465;DHT22;35358;49.342;8.802;2022-11-15T03:35:51;6.60;99.90
49465;DHT22;35358;49.342;8.802;2022-11-15T03:38:29;6.60;99.90
49465;DHT22;35358;49.342;8.802;2022-11-15T03:41:01;6.60;99.90
49465;DHT22;35358;49.342;8.802;2022-11-15T03:43:56;6.60;99.90
49465;DHT22;35358;49.342;8.802;2022-11-15T03:46:28;6.60;99.90
49465;DHT22;35358;49.342;8.802;2022-11-15T03:49:10;6.60;99.90
49465;DHT22;35358;49.342;8.802;2022-11-15T03:51:37;6.60;99.90
49465;DHT22;35358;49.342;8.802;2022-11-15T03:54:04;6.70;99.90
49465;DHT22;35358;49.342;8.802;2022-11-15T03:56:29;6.70;99.90
49465;DHT22;35358;49.342;8.802;2022-11-15T03:58:55;6.70;99.90
49465;DHT22;35358;49.342;8.802;2022-11-15T04:01:20;6.70;99.90
49465;DHT22;35358;49.342;8.802;2022-11-15T04:03:46;6.60;99.90
49465;DHT22;35358;49.342;8.802;2022-11-15T04:06:12;6.80;99.90
49465;DHT22;35358;49.342;8.802;2022-11-15T04:08:42;6.80;99.90
49465;DHT22;35358;49.342;8.802;2022-11-15T04:11:10;6.70;99.90
49465;DHT22;35358;49.342;8.802;2022-11-15T04:13:35;6.70;99.90
49465;DHT22;35358;49.342;8.802;2022-11-15T04:16:03;6.80;99.90
49465;DHT22;35358;49.342;8.802;2022-11-15T04:18:31;6.90;99.90
49465;DHT22;35358;49.342;8.802;2022-11-15T04:21:01;6.80;99.90
49465;DHT22;35358;49.342;8.802;2022-11-15T04:23:46;6.80;99.90
49465;DHT22;35358;49.342;8.802;2022-11-15T04:26:30;6.70;99.90
49465;DHT22;35358;49.342;8.802;2022-11-15T04:28:58;6.70;99.90
49465;DHT22;35358;49.342;8.802;2022-11-15T04:31:42;6.70;99.90
49465;DHT22;35358;49.342;8.802;2022-11-15T04:34:07;6.80;99.90
49465;DHT22;35358;49.342;8.802;2022-11-15T04:36:33;6.90;99.90
49465;DHT22;35358;49.342;8.802;2022-11-15T04:39:17;7.00;99.90
49465;DHT22;35358;49.342;8.802;2022-11-15T04:41:43;6.80;99.90
49465;DHT22;35358;49.342;8.802;2022-11-15T04:44:09;6.80;99.90
49465;DHT22;35358;49.342;8.802;2022-11-15T04:46:36;6.90;99.90
49465;DHT22;35358;49.342;8.802;2022-11-15T04:49:04;7.00;99.90
49465;DHT22;35358;49.342;8.802;2022-11-15T04:51:30;7.00;99.90
49465;DHT22;35358;49.342;8.802;2022-11-15T04:53:58;7.00;99.90
49465;DHT22;35358;49.342;8.802;2022-11-15T04:56:23;6.90;99.90
49465;DHT22;35358;49.342;8.802;2022-11-15T04:58:51;6.90;99.90
49465;DHT22;35358;49.342;8.802;2022-11-15T05:01:19;6.90;99.90
49465;DHT22;35358;49.342;8.802;2022-11-15T05:03:48;7.00;99.90
49465;DHT22;35358;49.342;8.802;2022-11-15T05:06:32;7.00;99.90
49465;DHT22;35358;49.342;8.802;2022-11-15T05:08:58;6.90;99.90
49465;DHT22;35358;49.342;8.802;2022-11-15T05:11:23;7.00;99.90
49465;DHT22;35358;49.342;8.802;2022-11-15T05:13:51;7.10;99.90
49465;DHT22;35358;49.342;8.802;2022-11-15T05:16:17;7.10;99.90
49465;DHT22;35358;49.342;8.802;2022-11-15T05:18:43;7.10;99.90
49465;DHT22;35358;49.342;8.802;2022-11-15T05:21:10;7.20;99.90
49465;DHT22;35358;49.342;8.802;2022-11-15T05:23:36;7.20;99.90
49465;DHT22;35358;49.342;8.802;2022-11-15T05:26:04;7.20;99.90
49465;DHT22;35358;49.342;8.802;2022-11-15T05:28:30;7.20;99.90
49465;DHT22;35358;49.342;8.802;2022-11-15T05:31:07;7.30;99.90
49465;DHT22;35358;49.342;8.802;2022-11-15T05:33:35;7.20;99.90
49465;DHT22;35358;49.342;8.802;2022-11-15T05:38:49;7.20;99.90
49465;DHT22;35358;49.342;8.802;2022-11-15T05:41:17;7.20;99.90
49465;DHT22;35358;49.342;8.802;2022-11-15T05:43:44;7.10;99.90
49465;DHT22;35358;49.342;8.802;2022-11-15T05:46:12;7.10;99.90
49465;DHT22;35358;49.342;8.802;2022-11-15T05:48:41;7.10;99.90
49465;DHT22;35358;49.342;8.802;2022-11-15T05:51:08;7.10;99.90
49465;DHT22;35358;49.342;8.802;2022-11-15T05:53:37;7.10;99.90
49465;DHT22;35358;49.342;8.802;2022-11-15T05:56:03;7.20;99.90
49465;DHT22;35358;49.342;8.802;2022-11-15T05:58:32;7.20;99.90
49465;DHT22;35358;49.342;8.802;2022-11-15T06:00:58;7.20;99.90
49465;DHT22;35358;49.342;8.802;2022-11-15T06:03:24;7.20;99.90
49465;DHT22;35358;49.342;8.802;2022-11-15T06:05:49;7.20;99.90
49465;DHT22;35358;49.342;8.802;2022-11-15T06:08:15;7.30;99.90
49465;DHT22;35358;49.342;8.802;2022-11-15T06:10:43;7.30;99.90
49465;DHT22;35358;49.342;8.802;2022-11-15T06:13:11;7.30;99.90
49465;DHT22;35358;49.342;8.802;2022-11-15T06:15:39;7.30;99.90
49465;DHT22;35358;49.342;8.802;2022-11-15T06:18:07;7.30;99.90
49465;DHT22;35358;49.342;8.802;2022-11-15T06:20:32;7.40;99.90
49465;DHT22;35358;49.342;8.802;2022-11-15T06:22:59;7.50;99.90
49465;DHT22;35358;49.342;8.802;2022-11-15T06:25:26;7.40;99.90
49465;DHT22;35358;49.342;8.802;2022-11-15T06:27:53;7.40;99.90
49465;DHT22;35358;49.342;8.802;2022-11-15T06:30:19;7.40;99.90
49465;DHT22;35358;49.342;8.802;2022-11-15T06:32:47;7.30;99.90
49465;DHT22;35358;49.342;8.802;2022-11-15T06:35:14;7.40;99.90
49465;DHT22;35358;49.342;8.802;2022-11-15T06:37:40;7.40;99.90
49465;DHT22;35358;49.342;8.802;2022-11-15T06:40:07;7.30;99.90
49465;DHT22;35358;49.342;8.802;2022-11-15T06:42:33;7.40;99.90
49465;DHT22;35358;49.342;8.802;2022-11-15T06:44:59;7.30;99.90
49465;DHT22;35358;49.342;8.802;2022-11-15T06:47:25;7.20;99.90
49465;DHT22;35358;49.342;8.802;2022-11-15T06:49:53;7.10;99.90
49465;DHT22;35358;49.342;8.802;2022-11-15T06:52:21;7.10;99.90
49465;DHT22;35358;49.342;8.802;2022-11-15T06:54:50;7.10;99.90
49465;DHT22;35358;49.342;8.802;2022-11-15T06:57:15;7.20;99.90
49465;DHT22;35358;49.342;8.802;2022-11-15T06:59:41;7.20;99.90
49465;DHT22;35358;49.342;8.802;2022-11-15T07:02:12;7.20;99.90
49465;DHT22;35358;49.342;8.802;2022-11-15T07:04:38;7.20;99.90
49465;DHT22;35358;49.342;8.802;2022-11-15T07:07:04;7.30;99.90
49465;DHT22;35358;49.342;8.802;2022-11-15T07:09:31;7.30;99.90
49465;DHT22;35358;49.342;8.802;2022-11-15T07:11:57;7.40;99.90
49465;DHT22;35358;49.342;8.802;2022-11-15T07:14:22;7.50;99.90
49465;DHT22;35358;49.342;8.802;2022-11-15T07:16:48;7.50;99.90
49465;DHT22;35358;49.342;8.802;2022-11-15T07:19:14;7.40;99.90
49465;DHT22;35358;49.342;8.802;2022-11-15T07:21:39;7.50;99.90
49465;DHT22;35358;49.342;8.802;2022-11-15T07:24:07;7.60;99.90
49465;DHT22;35358;49.342;8.802;2022-11-15T07:26:35;7.60;99.90
49465;DHT22;35358;49.342;8.802;2022-11-15T07:29:05;7.60;99.90
49465;DHT22;35358;49.342;8.802;2022-11-15T07:31:33;7.80;99.90
49465;DHT22;35358;49.342;8.802;2022-11-15T07:33:59;7.80;99.90
49465;DHT22;35358;49.342;8.802;2022-11-15T07:36:29;7.90;99.90
49465;DHT22;35358;49.342;8.802;2022-11-15T07:38:55;7.90;99.90
49465;DHT22;35358;49.342;8.802;2022-11-15T07:41:20;8.00;99.90
49465;DHT22;35358;49.342;8.802;2022-11-15T07:43:51;8.20;99.90
49465;DHT22;35358;49.342;8.802;2022-11-15T07:46:19;8.20;99.90
49465;DHT22;35358;49.342;8.802;2022-11-15T07:48:44;8.10;99.90
49465;DHT22;35358;49.342;8.802;2022-11-15T07:51:14;8.00;99.90
49465;DHT22;35358;49.342;8.802;2022-11-15T07:53:44;8.10;99.90
49465;DHT22;35358;49.342;8.802;2022-11-15T07:56:12;8.10;99.90
49465;DHT22;35358;49.342;8.802;2022-11-15T07:58:40;8.10;99.90
49465;DHT22;35358;49.342;8.802;2022-11-15T08:01:09;8.20;99.90
49465;DHT22;35358;49.342;8.802;2022-11-15T08:03:35;8.20;99.90
49465;DHT22;35358;49.342;8.802;2022-11-15T08:06:01;8.20;99.90
49465;DHT22;35358;49.342;8.802;2022-11-15T08:08:27;8.40;99.90
49465;DHT22;35358;49.342;8.802;2022-11-15T08:10:53;8.50;99.90
49465;DHT22;35358;49.342;8.802;2022-11-15T08:13:19;8.60;99.90
49465;DHT22;35358;49.342;8.802;2022-11-15T08:15:44;8.60;99.90
49465;DHT22;35358;49.342;8.802;2022-11-15T08:18:13;8.70;99.90
49465;DHT22;35358;49.342;8.802;2022-11-15T08:20:39;8.70;99.90
49465;DHT22;35358;49.342;8.802;2022-11-15T08:23:09;8.80;99.90
49465;DHT22;35358;49.342;8.802;2022-11-15T08:25:35;8.80;99.90
49465;DHT22;35358;49.342;8.802;2022-11-15T08:28:04;8.80;99.90
49465;DHT22;35358;49.342;8.802;2022-11-15T08:30:33;9.00;99.90
49465;DHT22;35358;49.342;8.802;2022-11-15T08:32:59;9.00;99.90
49465;DHT22;35358;49.342;8.802;2022-11-15T08:35:25;9.20;99.90
49465;DHT22;35358;49.342;8.802;2022-11-15T08:37:52;9.20;99.90
49465;DHT22;35358;49.342;8.802;2022-11-15T08:40:22;9.10;99.90
49465;DHT22;35358;49.342;8.802;2022-11-15T08:42:50;9.10;99.90
49465;DHT22;35358;49.342;8.802;2022-11-15T08:45:16;9.10;99.90
49465;DHT22;35358;49.342;8.802;2022-11-15T08:47:44;9.30;99.90
49465;DHT22;35358;49.342;8.802;2022-11-15T08:50:12;9.40;99.90
49465;DHT22;35358;49.342;8.802;2022-11-15T08:52:38;9.30;99.90
49465;DHT22;35358;49.342;8.802;2022-11-15T08:55:03;9.40;99.90
49465;DHT22;35358;49.342;8.802;2022-11-15T08:57:32;9.30;99.90
49465;DHT22;35358;49.342;8.802;2022-11-15T09:00:00;9.30;99.90
49465;DHT22;35358;49.342;8.802;2022-11-15T09:02:25;9.50;99.90
49465;DHT22;35358;49.342;8.802;2022-11-15T09:04:53;9.50;99.90
49465;DHT22;35358;49.342;8.802;2022-11-15T09:07:21;9.60;99.90
49465;DHT22;35358;49.342;8.802;2022-11-15T09:09:51;9.70;99.90
49465;DHT22;35358;49.342;8.802;2022-11-15T09:12:17;9.60;99.90
49465;DHT22;35358;49.342;8.802;2022-11-15T09:14:45;9.60;99.90
49465;DHT22;35358;49.342;8.802;2022-11-15T09:17:13;9.50;99.90
49465;DHT22;35358;49.342;8.802;2022-11-15T09:19:38;9.50;99.90
49465;DHT22;35358;49.342;8.802;2022-11-15T09:22:07;9.70;99.90
49465;DHT22;35358;49.342;8.802;2022-11-15T09:24:35;9.70;99.90
49465;DHT22;35358;49.342;8.802;2022-11-15T09:27:01;9.80;99.90
49465;DHT22;35358;49.342;8.802;2022-11-15T09:29:26;9.70;99.90
49465;DHT22;35358;49.342;8.802;2022-11-15T09:31:52;9.70;99.90
49465;DHT22;35358;49.342;8.802;2022-11-15T09:34:18;9.80;99.90
49465;DHT22;35358;49.342;8.802;2022-11-15T09:36:46;10.10;99.90
49465;DHT22;35358;49.342;8.802;2022-11-15T09:39:14;10.40;99.90
49465;DHT22;35358;49.342;8.802;2022-11-15T09:50:34;11.00;99.90
49465;DHT22;35358;49.342;8.802;2022-11-15T09:53:04;10.50;99.90
49465;DHT22;35358;49.342;8.802;2022-11-15T09:55:40;10.50;99.90
49465;DHT22;35358;49.342;8.802;2022-11-15T09:58:34;10.70;99.90
49465;DHT22;35358;49.342;8.802;2022-11-15T10:01:08;10.60;99.90
49465;DHT22;35358;49.342;8.802;2022-11-15T10:03:40;10.70;99.90
49465;DHT22;35358;49.342;8.802;2022-11-15T10:06:21;10.90;99.90
49465;DHT22;35358;49.342;8.802;2022-11-15T10:09:01;10.90;99.90
49465;DHT22;35358;49.342;8.802;2022-11-15T10:11:31;10.90;99.90
49465;DHT22;35358;49.342;8.802;2022-11-15T10:14:02;10.90;99.90
49465;DHT22;35358;49.342;8.802;2022-11-15T10:24:36;11.00;99.90
49465;DHT22;35358;49.342;8.802;2022-11-15T10:27:11;11.20;99.90
49465;DHT22;35358;49.342;8.802;2022-11-15T10:29:49;11.20;99.90
49465;DHT22;35358;49.342;8.802;2022-11-15T10:32:18;11.20;99.90
49465;DHT22;35358;49.342;8.802;2022-11-15T10:34:44;11.20;99.90
49465;DHT22;35358;49.342;8.802;2022-11-15T10:37:12;11.30;99.90
49465;DHT22;35358;49.342;8.802;2022-11-15T10:39:38;11.30;99.90
49465;DHT22;35358;49.342;8.802;2022-11-15T10:42:26;11.40;99.90
49465;DHT22;35358;49.342;8.802;2022-11-15T10:44:53;11.40;99.90
49465;DHT22;35358;49.342;8.802;2022-11-15T10:47:31;11.40;99.90
49465;DHT22;35358;49.342;8.802;2022-11-15T10:52:22;11.40;99.90
49465;DHT22;35358;49.342;8.802;2022-11-15T10:54:56;11.40;99.90
49465;DHT22;35358;49.342;8.802;2022-11-15T10:57:32;11.50;99.90
49465;DHT22;35358;49.342;8.802;2022-11-15T11:02:57;11.60;99.90
49465;DHT22;35358;49.342;8.802;2022-11-15T11:05:29;11.70;99.90
49465;DHT22;35358;49.342;8.802;2022-11-15T11:08:05;11.80;99.90
49465;DHT22;35358;49.342;8.802;2022-11-15T11:10:55;11.90;99.90
49465;DHT22;35358;49.342;8.802;2022-11-15T11:13:26;12.00;99.90
49465;DHT22;35358;49.342;8.802;2022-11-15T11:29:45;12.30;99.90
49465;DHT22;35358;49.342;8.802;2022-11-15T11:32:26;12.40;99.90
49465;DHT22;35358;49.342;8.802;2022-11-15T11:35:23;12.60;99.90
49465;DHT22;35358;49.342;8.802;2022-11-15T11:37:51;12.60;99.90
49465;DHT22;35358;49.342;8.802;2022-11-15T11:40:50;12.50;99.90
49465;DHT22;35358;49.342;8.802;2022-11-15T11:48:48;12.50;99.90
49465;DHT22;35358;49.342;8.802;2022-11-15T11:51:49;12.50;99.90
49465;DHT22;35358;49.342;8.802;2022-11-15T11:54:55;12.50;99.90
49465;DHT22;35358;49.342;8.802;2022-11-15T12:03:11;12.60;99.90
49465;DHT22;35358;49.342;8.802;2022-11-15T12:05:44;12.80;99.90
49465;DHT22;35358;49.342;8.802;2022-11-15T12:11:10;13.20;99.90
49465;DHT22;35358;49.342;8.802;2022-11-15T12:13:38;13.70;99.90
49465;DHT22;35358;49.342;8.802;2022-11-15T12:16:23;13.80;99.90
49465;DHT22;35358;49.342;8.802;2022-11-15T12:18:52;13.50;99.90
49465;DHT22;35358;49.342;8.802;2022-11-15T12:26:48;12.80;99.90
49465;DHT22;35358;49.342;8.802;2022-11-15T12:29:28;12.60;99.90
49465;DHT22;35358;49.342;8.802;2022-11-15T12:31:57;12.60;99.90
49465;DHT22;35358;49.342;8.802;2022-11-15T12:36:55;12.60;99.90
49465;DHT22;35358;49.342;8.802;2022-11-15T12:39:21;12.60;99.90
49465;DHT22;35358;49.342;8.802;2022-11-15T12:47:03;13.10;99.90
49465;DHT22;35358;49.342;8.802;2022-11-15T12:57:22;13.10;99.90
49465;DHT22;35358;49.342;8.802;2022-11-15T12:59:58;12.90;99.90
49465;DHT22;35358;49.342;8.802;2022-11-15T13:17:44;12.80;99.90
49465;DHT22;35358;49.342;8.802;2022-11-15T13:22:46;12.70;99.90
49465;DHT22;35358;49.342;8.802;2022-11-15T13:27:59;12.70;99.90
49465;DHT22;35358;49.342;8.802;2022-11-15T13:30:28;12.70;99.90
49465;DHT22;35358;49.342;8.802;2022-11-15T13:32:55;12.70;99.90
49465;DHT22;35358;49.342;8.802;2022-11-15T13:35:23;12.80;99.90
49465;DHT22;35358;49.342;8.802;2022-11-15T13:37:50;12.80;99.90
49465;DHT22;35358;49.342;8.802;2022-11-15T13:42:53;12.80;99.90
49465;DHT22;35358;49.342;8.802;2022-11-15T13:45:20;12.90;99.90
49465;DHT22;35358;49.342;8.802;2022-11-15T13:47:57;12.90;99.90
49465;DHT22;35358;49.342;8.802;2022-11-15T13:50:33;12.90;99.90
49465;DHT22;35358;49.342;8.802;2022-11-15T13:53:02;12.90;99.90
49465;DHT22;35358;49.342;8.802;2022-11-15T13:55:29;12.90;99.90
49465;DHT22;35358;49.342;8.802;2022-11-15T13:58:04;13.00;99.90
49465;DHT22;35358;49.342;8.802;2022-11-15T14:00:41;13.00;99.90
49465;DHT22;35358;49.342;8.802;2022-11-15T14:03:27;13.10;99.90
49465;DHT22;35358;49.342;8.802;2022-11-15T14:06:09;13.30;99.90
49465;DHT22;35358;49.342;8.802;2022-11-15T14:08:38;13.40;99.90
49465;DHT22;35358;49.342;8.802;2022-11-15T14:11:19;13.40;99.90
49465;DHT22;35358;49.342;8.802;2022-11-15T14:16:44;13.30;99.90
49465;DHT22;35358;49.342;8.802;2022-11-15T14:19:35;13.20;99.90
49465;DHT22;35358;49.342;8.802;2022-11-15T14:22:15;13.10;99.90
49465;DHT22;35358;49.342;8.802;2022-11-15T14:24:45;13.00;99.90
49465;DHT22;35358;49.342;8.802;2022-11-15T14:27:27;12.90;99.90
49465;DHT22;35358;49.342;8.802;2022-11-15T14:29:57;12.80;99.90
49465;DHT22;35358;49.342;8.802;2022-11-15T14:32:37;12.80;99.90
49465;DHT22;35358;49.342;8.802;2022-11-15T14:35:12;12.70;99.90
49465;DHT22;35358;49.342;8.802;2022-11-15T14:37:41;12.70;99.90
49465;DHT22;35358;49.342;8.802;2022-11-15T14:40:08;12.70;99.90
49465;DHT22;35358;49.342;8.802;2022-11-15T14:42:36;12.70;99.90
49465;DHT22;35358;49.342;8.802;2022-11-15T14:45:16;12.70;99.90
49465;DHT22;35358;49.342;8.802;2022-11-15T14:47:42;12.70;99.90
49465;DHT22;35358;49.342;8.802;2022-11-15T14:50:14;12.60;99.90
49465;DHT22;35358;49.342;8.802;2022-11-15T14:52:40;12.60;99.90
49465;DHT22;35358;49.342;8.802;2022-11-15T14:55:19;12.60;99.90
49465;DHT22;35358;49.342;8.802;2022-11-15T14:57:48;12.60;99.90
49465;DHT22;35358;49.342;8.802;2022-11-15T15:00:16;12.50;99.90
49465;DHT22;35358;49.342;8.802;2022-11-15T15:02:45;12.50;99.90
49465;DHT22;35358;49.342;8.802;2022-11-15T15:05:21;12.50;99.90
49465;DHT22;35358;49.342;8.802;2022-11-15T15:07:47;12.50;99.90
49465;DHT22;35358;49.342;8.802;2022-11-15T15:10:14;12.50;99.90
49465;DHT22;35358;49.342;8.802;2022-11-15T15:12:40;12.40;99.90
49465;DHT22;35358;49.342;8.802;2022-11-15T15:15:13;12.40;99.90
49465;DHT22;35358;49.342;8.802;2022-11-15T15:17:40;12.40;99.90
49465;DHT22;35358;49.342;8.802;2022-11-15T15:20:08;12.40;99.90
49465;DHT22;35358;49.342;8.802;2022-11-15T15:22:34;12.40;99.90
49465;DHT22;35358;49.342;8.802;2022-11-15T15:25:02;12.40;99.90
49465;DHT22;35358;49.342;8.802;2022-11-15T15:27:29;12.40;99.90
49465;DHT22;35358;49.342;8.802;2022-11-15T15:29:57;12.40;99.90
49465;DHT22;35358;49.342;8.802;2022-11-15T15:32:25;12.30;99.90
49465;DHT22;35358;49.342;8.802;2022-11-15T15:34:53;12.20;99.90
49465;DHT22;35358;49.342;8.802;2022-11-15T15:39:44;12.10;99.90
49465;DHT22;35358;49.342;8.802;2022-11-15T15:42:09;12.10;99.90
49465;DHT22;35358;49.342;8.802;2022-11-15T15:44:35;12.10;99.90
49465;DHT22;35358;49.342;8.802;2022-11-15T15:47:15;12.00;99.90
49465;DHT22;35358;49.342;8.802;2022-11-15T15:49:44;12.00;99.90
49465;DHT22;35358;49.342;8.802;2022-11-15T15:52:09;12.00;99.90
49465;DHT22;35358;49.342;8.802;2022-11-15T15:54:37;11.90;99.90
49465;DHT22;35358;49.342;8.802;2022-11-15T15:57:03;11.90;99.90
49465;DHT22;35358;49.342;8.802;2022-11-15T15:59:29;11.80;99.90
49465;DHT22;35358;49.342;8.802;2022-11-15T16:01:57;11.80;99.90
49465;DHT22;35358;49.342;8.802;2022-11-15T16:04:27;11.70;99.90
49465;DHT22;35358;49.342;8.802;2022-11-15T16:06:58;11.70;99.90
49465;DHT22;35358;49.342;8.802;2022-11-15T16:09:24;11.70;99.90
49465;DHT22;35358;49.342;8.802;2022-11-15T16:12:09;11.60;99.90
49465;DHT22;35358;49.342;8.802;2022-11-15T16:14:35;11.60;99.90
49465;DHT22;35358;49.342;8.802;2022-11-15T16:17:01;11.60;99.90
49465;DHT22;35358;49.342;8.802;2022-11-15T16:19:27;11.60;99.90
49465;DHT22;35358;49.342;8.802;2022-11-15T16:21:54;11.60;99.90
49465;DHT22;35358;49.342;8.802;2022-11-15T16:24:22;11.60;99.90
49465;DHT22;35358;49.342;8.802;2022-11-15T16:26:49;11.60;99.90
49465;DHT22;35358;49.342;8.802;2022-11-15T16:29:15;11.50;99.90
49465;DHT22;35358;49.342;8.802;2022-11-15T16:31:41;11.50;99.90
49465;DHT22;35358;49.342;8.802;2022-11-15T16:34:06;11.50;99.90
49465;DHT22;35358;49.342;8.802;2022-11-15T16:36:34;11.50;99.90
49465;DHT22;35358;49.342;8.802;2022-11-15T16:39:03;11.50;99.90
49465;DHT22;35358;49.342;8.802;2022-11-15T16:41:32;11.50;99.90
49465;DHT22;35358;49.342;8.802;2022-11-15T16:43:57;11.40;99.90
49465;DHT22;35358;49.342;8.802;2022-11-15T16:46:25;11.40;99.90
49465;DHT22;35358;49.342;8.802;2022-11-15T16:48:51;11.40;99.90
49465;DHT22;35358;49.342;8.802;2022-11-15T16:51:19;11.40;99.90
49465;DHT22;35358;49.342;8.802;2022-11-15T16:53:45;11.40;99.90
49465;DHT22;35358;49.342;8.802;2022-11-15T16:56:24;11.40;99.90
49465;DHT22;35358;49.342;8.802;2022-11-15T16:58:50;11.40;99.90
49465;DHT22;35358;49.342;8.802;2022-11-15T17:01:21;11.40;99.90
49465;DHT22;35358;49.342;8.802;2022-11-15T17:03:47;11.40;99.90
49465;DHT22;35358;49.342;8.802;2022-11-15T17:06:15;11.40;99.90
49465;DHT22;35358;49.342;8.802;2022-11-15T17:08:43;11.40;99.90
49465;DHT22;35358;49.342;8.802;2022-11-15T17:11:14;11.40;99.90
49465;DHT22;35358;49.342;8.802;2022-11-15T17:13:40;11.40;99.90
49465;DHT22;35358;49.342;8.802;2022-11-15T17:16:10;11.40;99.90
49465;DHT22;35358;49.342;8.802;2022-11-15T17:18:39;11.40;99.90
49465;DHT22;35358;49.342;8.802;2022-11-15T17:21:16;11.30;99.90
49465;DHT22;35358;49.342;8.802;2022-11-15T17:23:45;11.30;99.90
49465;DHT22;35358;49.342;8.802;2022-11-15T17:26:12;11.30;99.90
49465;DHT22;35358;49.342;8.802;2022-11-15T17:28:38;11.30;99.90
49465;DHT22;35358;49.342;8.802;2022-11-15T17:31:09;11.30;99.90
49465;DHT22;35358;49.342;8.802;2022-11-15T17:33:37;11.30;99.90
49465;DHT22;35358;49.342;8.802;2022-11-15T17:36:09;11.30;99.90
49465;DHT22;35358;49.342;8.802;2022-11-15T17:38:36;11.20;99.90
49465;DHT22;35358;49.342;8.802;2022-11-15T17:41:06;11.30;99.90
49465;DHT22;35358;49.342;8.802;2022-11-15T17:43:34;11.20;99.90
49465;DHT22;35358;49.342;8.802;2022-11-15T17:46:04;11.30;99.90
49465;DHT22;35358;49.342;8.802;2022-11-15T17:48:32;11.20;99.90
49465;DHT22;35358;49.342;8.802;2022-11-15T17:51:07;11.20;99.90
49465;DHT22;35358;49.342;8.802;2022-11-15T17:53:37;11.20;99.90
49465;DHT22;35358;49.342;8.802;2022-11-15T17:56:14;11.20;99.90
49465;DHT22;35358;49.342;8.802;2022-11-15T17:58:40;11.10;99.90
49465;DHT22;35358;49.342;8.802;2022-11-15T18:01:32;11.10;99.90
49465;DHT22;35358;49.342;8.802;2022-11-15T18:03:59;11.10;99.90
49465;DHT22;35358;49.342;8.802;2022-11-15T18:06:28;11.10;99.90
49465;DHT22;35358;49.342;8.802;2022-11-15T18:08:57;11.10;99.90